createdAt,value
2023-01-17T00:02:05.743Z,3.89
2023-01-17T00:04:52.164Z,3.84
2023-01-17T00:07:39.456Z,3.83
2023-01-17T00:10:09.989Z,3.81
2023-01-17T00:12:38.217Z,3.79
2023-01-17T00:15:07.578Z,3.71
2023-01-17T00:17:35.257Z,3.65
2023-01-17T00:20:21.951Z,3.67
2023-01-17T00:23:07.166Z,3.63
2023-01-17T00:25:55.948Z,3.60
2023-01-17T00:28:22.949Z,3.58
2023-01-17T00:30:49.537Z,3.52
2023-01-17T00:33:16.453Z,3.49
2023-01-17T00:35:44.482Z,3.46
2023-01-17T00:38:13.282Z,3.46
2023-01-17T00:40:42.476Z,3.45
2023-01-17T00:43:29.105Z,3.36
2023-01-17T00:46:14.518Z,3.37
2023-01-17T00:49:00.410Z,3.33
2023-01-17T00:51:47.871Z,3.31
2023-01-17T00:54:33.908Z,3.20
2023-01-17T00:57:19.754Z,3.19
2023-01-17T01:00:05.262Z,3.18
2023-01-17T01:02:51.522Z,3.15
2023-01-17T01:05:36.889Z,3.11
2023-01-17T01:08:35.209Z,3.08
2023-01-17T01:11:23.541Z,3.08
2023-01-17T01:14:09.098Z,3.02
2023-01-17T01:16:54.301Z,3.04
2023-01-17T01:19:39.764Z,3.00
2023-01-17T01:22:25.085Z,3.02
2023-01-17T01:25:11.838Z,3.05
2023-01-17T01:27:57.274Z,3.08
2023-01-17T01:30:42.513Z,3.08
2023-01-17T01:33:18.684Z,3.11
2023-01-17T01:35:47.275Z,3.20
2023-01-17T01:38:14.960Z,3.16
2023-01-17T01:40:45.453Z,3.23
2023-01-17T01:43:15.684Z,3.23
2023-01-17T01:45:47.978Z,3.25
2023-01-17T01:48:33.645Z,3.16
2023-01-17T01:51:03.247Z,3.27
2023-01-17T01:53:33.655Z,3.28
2023-01-17T01:56:04.397Z,3.31
2023-01-17T01:58:36.914Z,3.35
2023-01-17T02:01:06.320Z,3.31
2023-01-17T02:03:35.223Z,3.32
2023-01-17T02:06:09.779Z,3.35
2023-01-17T02:08:37.651Z,3.31
2023-01-17T02:11:06.865Z,3.25
2023-01-17T02:13:34.747Z,3.25
2023-01-17T02:16:09.058Z,3.21
2023-01-17T02:18:47.311Z,3.18
2023-01-17T02:21:25.049Z,3.06
2023-01-17T02:24:44.718Z,3.00
2023-01-17T02:27:25.718Z,2.98
2023-01-17T02:30:16.865Z,2.94
2023-01-17T02:32:54.109Z,2.89
2023-01-17T02:35:30.801Z,3.04
2023-01-17T02:38:06.807Z,3.06
2023-01-17T02:40:39.965Z,3.03
2023-01-17T02:43:11.765Z,2.95
2023-01-17T02:45:41.242Z,2.96
2023-01-17T02:48:11.922Z,2.99
2023-01-17T02:51:24.787Z,3.02
2023-01-17T02:54:04.896Z,2.99
2023-01-17T02:56:44.842Z,2.97
2023-01-17T02:59:26.066Z,2.98
2023-01-17T03:02:10.333Z,2.85
2023-01-17T03:04:43.001Z,2.84
2023-01-17T03:07:16.412Z,2.87
2023-01-17T03:09:45.848Z,2.89
2023-01-17T03:12:14.249Z,2.77
2023-01-17T03:14:41.917Z,2.68
2023-01-17T03:17:10.973Z,2.59
2023-01-17T03:19:38.640Z,2.56
2023-01-17T03:22:06.330Z,2.55
2023-01-17T03:24:34.045Z,2.47
2023-01-17T03:27:04.243Z,2.48
2023-01-17T03:29:32.327Z,2.49
2023-01-17T03:32:00.164Z,2.41
2023-01-17T03:34:29.448Z,2.48
2023-01-17T03:36:57.173Z,2.48
2023-01-17T03:39:24.904Z,2.46
2023-01-17T03:41:52.703Z,2.45
2023-01-17T03:44:20.369Z,2.42
2023-01-17T03:46:48.176Z,2.37
2023-01-17T03:49:16.655Z,2.37
2023-01-17T03:51:45.749Z,2.36
2023-01-17T03:54:13.449Z,2.33
2023-01-17T03:56:41.209Z,2.29
2023-01-17T03:59:10.426Z,2.29
2023-01-17T04:01:42.374Z,2.28
2023-01-17T04:04:10.047Z,2.24
2023-01-17T04:06:37.813Z,2.23
2023-01-17T04:09:06.941Z,2.19
2023-01-17T04:11:35.024Z,2.12
2023-01-17T04:14:02.801Z,2.08
2023-01-17T04:16:31.979Z,2.09
2023-01-17T04:18:59.968Z,2.08
2023-01-17T04:21:27.703Z,2.04
2023-01-17T04:23:56.442Z,2.04
2023-01-17T04:26:25.468Z,1.94
2023-01-17T04:28:53.364Z,1.86
2023-01-17T04:31:21.086Z,1.98
2023-01-17T04:33:48.814Z,1.93
2023-01-17T04:36:16.496Z,1.91
2023-01-17T04:38:44.202Z,1.88
2023-01-17T04:41:11.929Z,1.86
2023-01-17T04:43:41.011Z,1.84
2023-01-17T04:46:10.115Z,1.79
2023-01-17T04:48:38.267Z,1.85
2023-01-17T04:51:06.873Z,1.95
2023-01-17T04:53:34.592Z,1.82
2023-01-17T04:56:02.285Z,1.76
2023-01-17T04:58:30.517Z,1.87
2023-01-17T05:01:04.145Z,1.84
2023-01-17T05:03:32.554Z,1.91
2023-01-17T05:06:00.321Z,1.94
2023-01-17T05:08:28.016Z,2.00
2023-01-17T05:10:55.684Z,2.05
2023-01-17T05:13:23.417Z,2.13
2023-01-17T05:15:51.437Z,2.10
2023-01-17T05:18:20.538Z,2.06
2023-01-17T05:20:48.269Z,2.01
2023-01-17T05:23:16.017Z,1.94
2023-01-17T05:25:46.333Z,1.92
2023-01-17T05:28:14.937Z,1.84
2023-01-17T05:30:42.728Z,1.91
2023-01-17T05:33:11.204Z,1.89
2023-01-17T05:35:40.254Z,1.94
2023-01-17T05:38:08.102Z,1.97
2023-01-17T05:40:36.218Z,1.97
2023-01-17T05:43:04.561Z,1.96
2023-01-17T05:45:33.487Z,2.04
2023-01-17T05:48:01.935Z,2.10
2023-01-17T05:50:32.259Z,2.10
2023-01-17T05:53:03.271Z,2.18
2023-01-17T05:55:32.490Z,2.24
2023-01-17T05:58:00.671Z,2.26
2023-01-17T06:00:28.956Z,2.28
2023-01-17T06:02:58.056Z,2.29
2023-01-17T06:05:27.219Z,2.19
2023-01-17T06:07:56.507Z,2.20
2023-01-17T06:10:26.391Z,2.22
2023-01-17T06:13:03.058Z,2.18
2023-01-17T06:15:30.762Z,2.27
2023-01-17T06:17:58.575Z,2.21
2023-01-17T06:20:27.301Z,2.16
2023-01-17T06:22:56.551Z,2.10
2023-01-17T06:25:28.099Z,2.28
2023-01-17T06:27:55.814Z,2.32
2023-01-17T06:30:23.646Z,2.36
2023-01-17T06:32:55.180Z,2.34
2023-01-17T06:35:23.144Z,2.34
2023-01-17T06:37:55.445Z,2.37
2023-01-17T06:40:25.318Z,2.30
2023-01-17T06:42:53.159Z,2.24
2023-01-17T06:45:21.393Z,2.12
2023-01-17T06:47:49.157Z,2.13
2023-01-17T06:50:17.457Z,1.84
2023-01-17T06:52:54.847Z,1.89
2023-01-17T06:55:22.788Z,1.80
2023-01-17T06:57:51.891Z,1.68
2023-01-17T07:00:20.365Z,1.80
2023-01-17T07:02:50.673Z,1.79
2023-01-17T07:05:18.794Z,1.73
2023-01-17T07:07:47.131Z,1.81
2023-01-17T07:10:16.626Z,1.72
2023-01-17T07:12:44.368Z,1.72
2023-01-17T07:15:13.962Z,1.84
2023-01-17T07:17:41.783Z,1.93
2023-01-17T07:20:10.796Z,1.91
2023-01-17T07:22:38.507Z,1.97
2023-01-17T07:25:07.046Z,2.00
2023-01-17T07:27:34.738Z,1.82
2023-01-17T07:30:02.532Z,1.75
2023-01-17T07:32:31.615Z,1.68
2023-01-17T07:34:59.289Z,1.67
2023-01-17T07:37:27.064Z,1.64
2023-01-17T07:39:54.904Z,1.65
2023-01-17T07:42:24.189Z,1.65
2023-01-17T07:44:52.095Z,1.66
2023-01-17T07:47:20.973Z,1.72
2023-01-17T07:49:50.052Z,1.68
2023-01-17T07:52:18.339Z,1.76
2023-01-17T07:54:46.135Z,1.81
2023-01-17T07:57:13.920Z,1.66
2023-01-17T07:59:41.654Z,1.73
2023-01-17T08:02:17.588Z,1.79
2023-01-17T08:04:45.381Z,1.94
2023-01-17T08:07:14.969Z,2.03
2023-01-17T08:09:43.195Z,2.22
2023-01-17T08:12:11.467Z,2.38
2023-01-17T08:14:39.204Z,2.53
2023-01-17T08:17:07.594Z,2.84
2023-01-17T08:19:35.256Z,3.34
2023-01-17T08:22:03.003Z,4.53
2023-01-17T08:24:32.082Z,5.03
2023-01-17T08:26:59.813Z,5.84
2023-01-17T08:29:27.586Z,6.01
2023-01-17T08:31:55.255Z,6.53
2023-01-17T08:34:23.146Z,6.75
2023-01-17T08:36:53.883Z,6.99
2023-01-17T08:39:22.378Z,7.44
2023-01-17T08:41:51.706Z,6.94
2023-01-17T08:44:20.057Z,6.36
2023-01-17T08:46:47.768Z,5.79
2023-01-17T08:49:15.552Z,5.24
2023-01-17T08:51:43.357Z,4.67
2023-01-17T08:54:13.279Z,4.84
2023-01-17T08:56:42.728Z,5.35
2023-01-17T08:59:13.055Z,6.07
2023-01-17T09:01:41.902Z,6.97
2023-01-17T09:04:10.277Z,7.33
2023-01-17T09:06:39.283Z,7.54
2023-01-17T09:09:07.579Z,8.29
2023-01-17T09:11:35.426Z,8.66
2023-01-17T09:14:03.143Z,8.71
2023-01-17T09:16:33.106Z,8.00
2023-01-17T09:19:01.224Z,6.91
2023-01-17T09:21:28.865Z,6.27
2023-01-17T09:23:56.748Z,6.25
2023-01-17T09:26:27.294Z,6.76
2023-01-17T09:28:55.420Z,6.95
2023-01-17T09:31:24.493Z,5.64
2023-01-17T09:33:55.267Z,5.50
2023-01-17T09:36:23.907Z,6.36
2023-01-17T09:38:57.046Z,6.38
2023-01-17T09:41:27.903Z,6.62
2023-01-17T09:44:01.326Z,7.26
2023-01-17T09:46:32.583Z,6.88
2023-01-17T09:49:08.386Z,7.17
2023-01-17T09:51:37.590Z,7.56
2023-01-17T09:54:06.023Z,7.46
2023-01-17T09:56:41.363Z,7.21
2023-01-17T09:59:33.229Z,7.85
2023-01-17T10:02:12.971Z,8.46
2023-01-17T10:04:59.600Z,9.25
2023-01-17T10:07:38.592Z,8.78
2023-01-17T10:10:21.076Z,9.28
2023-01-17T10:12:57.288Z,9.75
2023-01-17T10:16:00.167Z,8.94
2023-01-17T10:18:59.148Z,8.75
2023-01-17T10:21:39.140Z,9.38
2023-01-17T10:24:25.712Z,10.25
2023-01-17T10:26:57.187Z,11.94
2023-01-17T10:29:30.434Z,12.11
2023-01-17T10:32:00.999Z,11.19
2023-01-17T10:34:35.729Z,9.45
2023-01-17T10:37:17.013Z,7.97
2023-01-17T10:39:48.968Z,6.98
2023-01-17T10:42:22.896Z,6.69
2023-01-17T10:44:58.763Z,6.27
2023-01-17T10:47:31.934Z,6.16
2023-01-17T10:50:02.907Z,6.00
2023-01-17T10:52:39.853Z,5.64
2023-01-17T10:55:18.396Z,5.57
2023-01-17T10:57:48.734Z,5.49
2023-01-17T11:00:39.827Z,5.32
2023-01-17T11:03:08.051Z,5.15
2023-01-17T11:05:35.849Z,4.92
2023-01-17T11:08:07.200Z,5.03
2023-01-17T11:10:39.943Z,5.14
2023-01-17T11:13:23.429Z,5.55
2023-01-17T11:15:53.528Z,6.39
2023-01-17T11:18:22.716Z,7.17
2023-01-17T11:20:50.917Z,7.49
2023-01-17T11:23:23.520Z,7.57
2023-01-17T11:25:53.627Z,8.38
2023-01-17T11:28:26.043Z,7.84
2023-01-17T11:30:56.529Z,8.09
2023-01-17T11:33:45.034Z,9.04
2023-01-17T11:36:18.510Z,9.59
2023-01-17T11:38:57.717Z,9.29
2023-01-17T11:41:27.982Z,9.24
2023-01-17T11:43:57.446Z,9.04
2023-01-17T11:46:28.173Z,9.45
2023-01-17T11:48:59.516Z,9.32
2023-01-17T11:51:30.904Z,9.39
2023-01-17T11:54:13.345Z,9.51
2023-01-17T11:56:44.924Z,9.23
2023-01-17T11:59:29.911Z,9.59
2023-01-17T12:02:31.646Z,10.65
2023-01-17T12:05:10.068Z,10.74
2023-01-17T12:07:48.702Z,11.76
2023-01-17T12:10:24.645Z,11.60
2023-01-17T12:13:20.490Z,12.17
2023-01-17T12:16:01.732Z,11.90
2023-01-17T12:18:49.800Z,11.79
2023-01-17T12:21:21.112Z,10.78
2023-01-17T12:24:08.356Z,10.28
2023-01-17T12:26:41.408Z,10.50
2023-01-17T12:29:33.878Z,10.01
2023-01-17T12:32:23.501Z,11.14
2023-01-17T12:34:56.061Z,11.53
2023-01-17T12:37:30.496Z,10.41
2023-01-17T12:40:03.346Z,11.15
2023-01-17T12:42:40.661Z,12.37
2023-01-17T12:45:14.426Z,12.28
2023-01-17T12:47:46.530Z,12.72
2023-01-17T12:50:23.245Z,12.78
2023-01-17T12:53:00.419Z,11.91
2023-01-17T12:55:37.427Z,11.49
2023-01-17T12:58:13.727Z,11.27
2023-01-17T13:00:52.226Z,10.29
2023-01-17T13:03:30.793Z,11.41
2023-01-17T13:05:59.370Z,12.35
2023-01-17T13:08:34.881Z,11.92
2023-01-17T13:11:08.120Z,11.85
2023-01-17T13:13:39.206Z,11.84
2023-01-17T13:16:13.608Z,11.43
2023-01-17T13:18:46.204Z,10.41
2023-01-17T13:21:33.059Z,9.38
2023-01-17T13:24:22.645Z,9.71
2023-01-17T13:27:03.368Z,9.34
2023-01-17T13:29:41.323Z,8.29
2023-01-17T13:32:22.756Z,8.44
2023-01-17T13:35:07.691Z,8.49
2023-01-17T13:37:53.425Z,7.90
2023-01-17T13:40:37.435Z,7.56
2023-01-17T13:43:12.393Z,7.06
2023-01-17T13:45:41.705Z,7.10
2023-01-17T13:48:32.604Z,6.52
2023-01-17T13:51:02.212Z,6.45
2023-01-17T13:53:59.744Z,6.60
2023-01-17T13:56:35.552Z,6.46
2023-01-17T13:59:22.147Z,5.81
2023-01-17T14:01:55.075Z,5.87
2023-01-17T14:04:24.612Z,5.70
2023-01-17T14:07:03.772Z,5.32
2023-01-17T14:09:42.170Z,5.44
2023-01-17T14:12:28.024Z,5.58
2023-01-17T14:14:57.627Z,5.36
2023-01-17T14:17:55.658Z,4.89
2023-01-17T14:20:50.274Z,4.79
2023-01-17T14:23:26.100Z,4.41
2023-01-17T14:25:54.612Z,4.30
2023-01-17T14:28:25.594Z,4.52
2023-01-17T14:30:56.099Z,4.67
2023-01-17T14:33:29.770Z,4.52
2023-01-17T14:35:59.656Z,4.47
2023-01-17T14:38:29.334Z,4.35
2023-01-17T14:40:59.832Z,4.36
2023-01-17T14:43:29.480Z,4.34
2023-01-17T14:45:59.688Z,4.31
2023-01-17T14:48:29.832Z,4.26
2023-01-17T14:51:00.205Z,4.23
2023-01-17T14:53:29.262Z,4.27
2023-01-17T14:56:00.155Z,4.26
2023-01-17T14:58:30.401Z,4.26
2023-01-17T15:01:01.272Z,4.36
2023-01-17T15:03:33.331Z,4.38
2023-01-17T15:06:11.932Z,4.30
2023-01-17T15:08:40.199Z,4.08
2023-01-17T15:11:11.014Z,4.14
2023-01-17T15:13:44.614Z,3.99
2023-01-17T15:16:22.933Z,4.03
2023-01-17T15:18:53.438Z,3.95
2023-01-17T15:21:23.392Z,3.90
2023-01-17T15:23:54.433Z,3.97
2023-01-17T15:26:25.379Z,3.74
2023-01-17T15:28:54.187Z,3.72
2023-01-17T15:31:25.010Z,3.81
2023-01-17T15:33:58.484Z,3.78
2023-01-17T15:36:32.426Z,3.73
2023-01-17T15:39:02.612Z,3.78
2023-01-17T15:41:34.885Z,3.74
2023-01-17T15:44:02.900Z,3.76
2023-01-17T15:46:33.904Z,3.86
2023-01-17T15:49:17.757Z,3.88
2023-01-17T15:51:51.849Z,3.90
2023-01-17T15:54:44.569Z,3.93
2023-01-17T15:57:23.457Z,3.93
2023-01-17T15:59:55.158Z,3.84
2023-01-17T16:02:31.976Z,3.81
2023-01-17T16:05:02.448Z,3.76
2023-01-17T16:07:34.788Z,3.75
2023-01-17T16:10:15.655Z,3.57
2023-01-17T16:12:43.335Z,3.46
2023-01-17T16:15:13.418Z,3.50
2023-01-17T16:17:45.477Z,3.54
2023-01-17T16:20:25.295Z,3.47
2023-01-17T16:22:53.455Z,3.41
2023-01-17T16:25:22.682Z,3.39
2023-01-17T16:27:51.996Z,3.45
2023-01-17T16:30:22.468Z,3.24
2023-01-17T16:32:50.897Z,3.18
2023-01-17T16:35:21.520Z,3.25
2023-01-17T16:37:50.984Z,3.23
2023-01-17T16:40:19.780Z,3.11
2023-01-17T16:42:47.637Z,3.16
2023-01-17T16:45:16.266Z,3.24
2023-01-17T16:47:45.620Z,3.26
2023-01-17T16:50:15.841Z,3.14
2023-01-17T16:52:45.052Z,3.19
2023-01-17T16:55:14.926Z,3.15
2023-01-17T16:57:42.793Z,3.12
2023-01-17T17:00:12.812Z,3.15
2023-01-17T17:02:40.755Z,3.23
2023-01-17T17:05:09.649Z,3.23
2023-01-17T17:07:42.671Z,3.21
2023-01-17T17:10:14.016Z,3.20
2023-01-17T17:12:41.950Z,3.25
2023-01-17T17:15:10.928Z,3.11
2023-01-17T17:17:39.556Z,3.14
2023-01-17T17:20:09.581Z,3.15
2023-01-17T17:22:37.348Z,3.01
2023-01-17T17:25:05.542Z,2.92
2023-01-17T17:27:34.486Z,2.91
2023-01-17T17:30:02.151Z,2.95
2023-01-17T17:32:30.869Z,3.00
2023-01-17T17:34:58.576Z,3.05
2023-01-17T17:37:28.908Z,2.90
2023-01-17T17:39:56.638Z,2.88
2023-01-17T17:42:24.651Z,2.84
2023-01-17T17:44:53.674Z,2.84
2023-01-17T17:47:21.368Z,2.83
2023-01-17T17:49:49.026Z,2.79
2023-01-17T17:52:16.711Z,2.57
2023-01-17T17:54:44.354Z,2.52
2023-01-17T17:57:12.065Z,2.57
2023-01-17T17:59:39.761Z,2.60
2023-01-17T18:02:11.009Z,2.42
2023-01-17T18:04:39.127Z,2.44
2023-01-17T18:07:06.783Z,2.43
2023-01-17T18:09:34.646Z,2.36
2023-01-17T18:12:02.815Z,2.25
2023-01-17T18:14:30.644Z,2.27
2023-01-17T18:16:58.257Z,2.36
2023-01-17T18:19:27.469Z,2.28
2023-01-17T18:21:55.741Z,2.23
2023-01-17T18:24:25.110Z,2.16
2023-01-17T18:26:54.178Z,2.12
2023-01-17T18:29:22.874Z,2.03
2023-01-17T18:31:52.152Z,1.97
2023-01-17T18:34:23.675Z,1.97
2023-01-17T18:36:53.298Z,2.04
2023-01-17T18:39:22.548Z,2.00
2023-01-17T18:41:50.263Z,2.01
2023-01-17T18:44:20.851Z,2.02
2023-01-17T18:46:50.177Z,1.95
2023-01-17T18:49:19.248Z,1.82
2023-01-17T18:51:51.272Z,1.89
2023-01-17T18:54:21.044Z,1.94
2023-01-17T18:56:49.350Z,2.12
2023-01-17T18:59:18.337Z,2.15
2023-01-17T19:01:46.965Z,2.17
2023-01-17T19:04:17.131Z,2.12
2023-01-17T19:06:46.425Z,2.04
2023-01-17T19:09:15.704Z,2.03
2023-01-17T19:11:45.496Z,2.16
2023-01-17T19:14:14.415Z,2.23
2023-01-17T19:16:43.463Z,2.19
2023-01-17T19:19:13.873Z,2.26
2023-01-17T19:21:41.677Z,2.24
2023-01-17T19:24:11.795Z,2.17
2023-01-17T19:26:39.634Z,2.19
2023-01-17T19:29:08.690Z,2.07
2023-01-17T19:31:39.659Z,2.14
2023-01-17T19:34:07.432Z,2.00
2023-01-17T19:36:36.714Z,2.13
2023-01-17T19:39:07.226Z,2.20
2023-01-17T19:41:37.034Z,2.30
2023-01-17T19:44:07.194Z,2.28
2023-01-17T19:46:37.535Z,2.33
2023-01-17T19:49:07.507Z,2.30
2023-01-17T19:51:35.867Z,2.17
2023-01-17T19:54:06.340Z,2.19
2023-01-17T19:56:34.078Z,2.30
2023-01-17T19:59:02.311Z,2.30
2023-01-17T20:01:32.330Z,2.33
2023-01-17T20:04:04.768Z,2.33
2023-01-17T20:06:34.101Z,2.21
2023-01-17T20:09:02.838Z,2.27
2023-01-17T20:11:30.634Z,2.34
2023-01-17T20:14:00.451Z,2.33
2023-01-17T20:16:30.535Z,2.22
2023-01-17T20:18:58.752Z,2.24
2023-01-17T20:21:31.650Z,2.28
2023-01-17T20:24:03.080Z,2.21
2023-01-17T20:26:36.134Z,2.21
2023-01-17T20:29:10.471Z,2.32
2023-01-17T20:31:40.857Z,2.23
2023-01-17T20:34:10.747Z,2.18
2023-01-17T20:36:42.023Z,2.05
2023-01-17T20:39:11.739Z,1.98
2023-01-17T20:41:41.292Z,2.09
2023-01-17T20:44:12.309Z,2.08
2023-01-17T20:46:41.373Z,2.15
2023-01-17T20:49:14.737Z,2.12
2023-01-17T20:51:45.666Z,2.22
2023-01-17T20:54:15.630Z,2.28
2023-01-17T20:56:44.073Z,2.33
2023-01-17T20:59:14.452Z,2.38
2023-01-17T21:01:43.764Z,2.33
2023-01-17T21:04:12.924Z,2.34
2023-01-17T21:06:41.524Z,2.32
2023-01-17T21:09:13.908Z,2.32
2023-01-17T21:11:41.871Z,2.48
2023-01-17T21:14:09.968Z,2.32
2023-01-17T21:16:38.146Z,2.31
2023-01-17T21:19:06.805Z,2.28
2023-01-17T21:21:35.918Z,2.25
2023-01-17T21:24:04.948Z,2.16
2023-01-17T21:26:34.357Z,2.19
2023-01-17T21:29:04.629Z,2.20
2023-01-17T21:31:35.734Z,2.18
2023-01-17T21:34:05.517Z,2.12
2023-01-17T21:36:35.602Z,2.10
2023-01-17T21:39:06.427Z,2.18
2023-01-17T21:41:38.101Z,2.09
2023-01-17T21:44:08.703Z,2.19
2023-01-17T21:46:39.264Z,2.31
2023-01-17T21:49:10.552Z,2.15
2023-01-17T21:51:56.245Z,2.23
2023-01-17T21:54:46.079Z,2.25
2023-01-17T21:57:39.196Z,2.19
2023-01-17T22:00:09.901Z,2.25
2023-01-17T22:02:37.829Z,2.21
2023-01-17T22:05:07.756Z,2.13
2023-01-17T22:07:36.212Z,2.24
2023-01-17T22:10:04.051Z,2.31
2023-01-17T22:12:33.357Z,2.26
2023-01-17T22:15:01.119Z,2.27
2023-01-17T22:17:30.555Z,2.23
2023-01-17T22:19:58.442Z,2.20
2023-01-17T22:22:26.250Z,2.22
2023-01-17T22:24:54.068Z,2.20
2023-01-17T22:27:22.138Z,2.10
2023-01-17T22:29:51.224Z,2.03
2023-01-17T22:32:18.994Z,1.87
2023-01-17T22:34:46.694Z,2.01
2023-01-17T22:37:14.548Z,2.02
2023-01-17T22:39:42.300Z,2.00
2023-01-17T22:42:10.067Z,2.02
2023-01-17T22:44:37.883Z,2.00
2023-01-17T22:47:06.958Z,1.99
2023-01-17T22:49:34.658Z,1.96
2023-01-17T22:52:02.407Z,1.97
2023-01-17T22:54:30.210Z,1.99
2023-01-17T22:56:58.796Z,1.91
2023-01-17T22:59:26.526Z,1.96
2023-01-17T23:01:54.925Z,1.97
2023-01-17T23:04:24.032Z,1.96
2023-01-17T23:06:51.944Z,1.86
2023-01-17T23:09:19.748Z,1.81
2023-01-17T23:11:50.746Z,1.88
2023-01-17T23:14:20.637Z,1.79
2023-01-17T23:17:08.389Z,1.81
2023-01-17T23:19:39.585Z,1.83
2023-01-17T23:22:22.284Z,1.91
2023-01-17T23:24:52.619Z,1.92
2023-01-17T23:27:40.941Z,1.96
2023-01-17T23:30:11.752Z,1.89
2023-01-17T23:32:40.034Z,1.86
2023-01-17T23:35:09.617Z,1.73
2023-01-17T23:37:54.824Z,1.74
2023-01-17T23:40:22.788Z,1.68
2023-01-17T23:43:08.052Z,1.59
2023-01-17T23:45:36.835Z,1.49
2023-01-17T23:48:05.701Z,1.42
2023-01-17T23:50:34.861Z,1.38
2023-01-17T23:53:06.850Z,1.29
2023-01-17T23:55:37.022Z,1.32
2023-01-17T23:58:05.130Z,1.33
